sensor_id;sensor_type;location;lat;lon;timestamp;P1;durP1;ratioP1;P2;durP2;ratioP2
25731;SDS011;13585;50.864;4.406;2022-08-19T00:02:23;5.47;;;4.50;;
25731;SDS011;13585;50.864;4.406;2022-08-19T00:04:49;7.32;;;4.75;;
25731;SDS011;13585;50.864;4.406;2022-08-19T00:07:17;5.30;;;4.80;;
25731;SDS011;13585;50.864;4.406;2022-08-19T00:09:43;5.35;;;4.85;;
25731;SDS011;13585;50.864;4.406;2022-08-19T00:12:10;6.63;;;5.30;;
25731;SDS011;13585;50.864;4.406;2022-08-19T00:14:36;6.53;;;4.90;;
25731;SDS011;13585;50.864;4.406;2022-08-19T00:17:03;6.95;;;5.03;;
25731;SDS011;13585;50.864;4.406;2022-08-19T00:19:32;6.97;;;5.28;;
25731;SDS011;13585;50.864;4.406;2022-08-19T00:21:58;7.25;;;5.53;;
25731;SDS011;13585;50.864;4.406;2022-08-19T00:24:24;8.25;;;5.82;;
25731;SDS011;13585;50.864;4.406;2022-08-19T00:26:50;7.75;;;5.95;;
25731;SDS011;13585;50.864;4.406;2022-08-19T00:29:18;8.85;;;6.07;;
25731;SDS011;13585;50.864;4.406;2022-08-19T00:31:45;10.65;;;7.47;;
25731;SDS011;13585;50.864;4.406;2022-08-19T00:34:12;9.07;;;7.10;;
25731;SDS011;13585;50.864;4.406;2022-08-19T00:36:39;8.30;;;6.80;;
25731;SDS011;13585;50.864;4.406;2022-08-19T00:39:05;9.57;;;7.72;;
25731;SDS011;13585;50.864;4.406;2022-08-19T00:41:31;11.40;;;7.78;;
25731;SDS011;13585;50.864;4.406;2022-08-19T00:46:24;11.02;;;8.05;;
25731;SDS011;13585;50.864;4.406;2022-08-19T00:48:50;9.85;;;8.23;;
25731;SDS011;13585;50.864;4.406;2022-08-19T00:51:15;11.18;;;8.40;;
25731;SDS011;13585;50.864;4.406;2022-08-19T00:53:41;10.85;;;8.13;;
25731;SDS011;13585;50.864;4.406;2022-08-19T00:56:08;8.52;;;7.15;;
25731;SDS011;13585;50.864;4.406;2022-08-19T00:58:35;11.40;;;8.65;;
25731;SDS011;13585;50.864;4.406;2022-08-19T01:01:01;11.13;;;8.43;;
25731;SDS011;13585;50.864;4.406;2022-08-19T01:03:28;11.40;;;8.90;;
25731;SDS011;13585;50.864;4.406;2022-08-19T01:05:54;11.90;;;9.55;;
25731;SDS011;13585;50.864;4.406;2022-08-19T01:08:20;11.45;;;10.18;;
25731;SDS011;13585;50.864;4.406;2022-08-19T01:10:48;10.82;;;9.48;;
25731;SDS011;13585;50.864;4.406;2022-08-19T01:13:20;10.85;;;9.45;;
25731;SDS011;13585;50.864;4.406;2022-08-19T01:15:50;12.18;;;8.70;;
25731;SDS011;13585;50.864;4.406;2022-08-19T01:18:19;13.67;;;10.50;;
25731;SDS011;13585;50.864;4.406;2022-08-19T01:20:46;13.85;;;11.20;;
25731;SDS011;13585;50.864;4.406;2022-08-19T01:23:12;11.90;;;9.40;;
25731;SDS011;13585;50.864;4.406;2022-08-19T01:30:43;14.50;;;10.60;;
25731;SDS011;13585;50.864;4.406;2022-08-19T01:33:09;13.32;;;10.15;;
25731;SDS011;13585;50.864;4.406;2022-08-19T01:35:35;14.10;;;10.20;;
25731;SDS011;13585;50.864;4.406;2022-08-19T01:38:03;12.50;;;11.23;;
25731;SDS011;13585;50.864;4.406;2022-08-19T01:40:33;10.38;;;8.48;;
25731;SDS011;13585;50.864;4.406;2022-08-19T01:43:01;9.70;;;8.70;;
25731;SDS011;13585;50.864;4.406;2022-08-19T01:45:28;12.20;;;9.77;;
25731;SDS011;13585;50.864;4.406;2022-08-19T01:47:56;11.73;;;9.50;;
25731;SDS011;13585;50.864;4.406;2022-08-19T01:50:23;11.35;;;8.75;;
25731;SDS011;13585;50.864;4.406;2022-08-19T01:52:49;10.65;;;9.02;;
25731;SDS011;13585;50.864;4.406;2022-08-19T01:55:16;10.27;;;8.75;;
25731;SDS011;13585;50.864;4.406;2022-08-19T01:57:47;11.60;;;8.40;;
25731;SDS011;13585;50.864;4.406;2022-08-19T02:00:17;9.35;;;8.23;;
25731;SDS011;13585;50.864;4.406;2022-08-19T02:02:45;8.88;;;7.97;;
25731;SDS011;13585;50.864;4.406;2022-08-19T02:05:11;9.07;;;7.82;;
25731;SDS011;13585;50.864;4.406;2022-08-19T02:07:38;8.75;;;7.85;;
25731;SDS011;13585;50.864;4.406;2022-08-19T02:10:06;10.63;;;7.70;;
25731;SDS011;13585;50.864;4.406;2022-08-19T02:12:34;8.38;;;7.20;;
25731;SDS011;13585;50.864;4.406;2022-08-19T02:15:00;9.15;;;7.47;;
25731;SDS011;13585;50.864;4.406;2022-08-19T02:17:27;8.18;;;7.30;;
25731;SDS011;13585;50.864;4.406;2022-08-19T02:19:57;7.25;;;6.55;;
25731;SDS011;13585;50.864;4.406;2022-08-19T02:22:24;6.93;;;6.30;;
25731;SDS011;13585;50.864;4.406;2022-08-19T02:24:53;7.88;;;7.07;;
25731;SDS011;13585;50.864;4.406;2022-08-19T02:27:20;7.18;;;6.43;;
25731;SDS011;13585;50.864;4.406;2022-08-19T02:29:47;8.98;;;6.85;;
25731;SDS011;13585;50.864;4.406;2022-08-19T02:32:14;7.15;;;6.45;;
25731;SDS011;13585;50.864;4.406;2022-08-19T02:34:40;6.53;;;5.93;;
25731;SDS011;13585;50.864;4.406;2022-08-19T02:37:06;7.07;;;6.20;;
25731;SDS011;13585;50.864;4.406;2022-08-19T02:39:52;6.20;;;5.60;;
25731;SDS011;13585;50.864;4.406;2022-08-19T02:42:17;6.05;;;5.50;;
25731;SDS011;13585;50.864;4.406;2022-08-19T02:44:43;8.32;;;5.88;;
25731;SDS011;13585;50.864;4.406;2022-08-19T02:47:09;6.53;;;5.93;;
25731;SDS011;13585;50.864;4.406;2022-08-19T02:49:35;6.03;;;5.43;;
25731;SDS011;13585;50.864;4.406;2022-08-19T02:52:00;6.65;;;5.80;;
25731;SDS011;13585;50.864;4.406;2022-08-19T02:54:27;6.63;;;5.70;;
25731;SDS011;13585;50.864;4.406;2022-08-19T02:56:53;7.10;;;5.47;;
25731;SDS011;13585;50.864;4.406;2022-08-19T02:59:19;6.80;;;5.95;;
25731;SDS011;13585;50.864;4.406;2022-08-19T03:01:45;6.45;;;5.72;;
25731;SDS011;13585;50.864;4.406;2022-08-19T03:04:11;6.03;;;5.35;;
25731;SDS011;13585;50.864;4.406;2022-08-19T03:06:40;5.95;;;5.15;;
25731;SDS011;13585;50.864;4.406;2022-08-19T03:09:07;6.85;;;5.40;;
25731;SDS011;13585;50.864;4.406;2022-08-19T03:11:33;5.40;;;4.82;;
25731;SDS011;13585;50.864;4.406;2022-08-19T03:13:59;6.05;;;5.45;;
25731;SDS011;13585;50.864;4.406;2022-08-19T03:16:28;7.43;;;5.60;;
25731;SDS011;13585;50.864;4.406;2022-08-19T03:18:56;8.13;;;5.18;;
25731;SDS011;13585;50.864;4.406;2022-08-19T03:21:26;9.00;;;5.22;;
25731;SDS011;13585;50.864;4.406;2022-08-19T03:23:54;5.85;;;4.97;;
25731;SDS011;13585;50.864;4.406;2022-08-19T03:26:21;6.18;;;4.63;;
25731;SDS011;13585;50.864;4.406;2022-08-19T03:28:46;5.95;;;4.35;;
25731;SDS011;13585;50.864;4.406;2022-08-19T03:31:15;5.72;;;4.75;;
25731;SDS011;13585;50.864;4.406;2022-08-19T03:33:42;5.50;;;4.40;;
25731;SDS011;13585;50.864;4.406;2022-08-19T03:36:13;6.95;;;4.72;;
25731;SDS011;13585;50.864;4.406;2022-08-19T03:38:43;4.95;;;4.43;;
25731;SDS011;13585;50.864;4.406;2022-08-19T03:41:15;5.95;;;5.30;;
25731;SDS011;13585;50.864;4.406;2022-08-19T03:43:44;6.45;;;5.28;;
25731;SDS011;13585;50.864;4.406;2022-08-19T03:46:17;6.22;;;5.20;;
25731;SDS011;13585;50.864;4.406;2022-08-19T03:48:48;5.50;;;4.88;;
25731;SDS011;13585;50.864;4.406;2022-08-19T03:51:20;6.15;;;5.18;;
25731;SDS011;13585;50.864;4.406;2022-08-19T03:53:52;5.60;;;4.00;;
25731;SDS011;13585;50.864;4.406;2022-08-19T03:56:18;4.72;;;4.22;;
25731;SDS011;13585;50.864;4.406;2022-08-19T03:58:44;5.25;;;4.75;;
25731;SDS011;13585;50.864;4.406;2022-08-19T04:01:11;5.00;;;4.15;;
25731;SDS011;13585;50.864;4.406;2022-08-19T04:03:39;6.57;;;4.97;;
25731;SDS011;13585;50.864;4.406;2022-08-19T04:08:39;4.60;;;4.20;;
25731;SDS011;13585;50.864;4.406;2022-08-19T04:11:07;6.53;;;4.57;;
25731;SDS011;13585;50.864;4.406;2022-08-19T04:13:37;4.93;;;4.00;;
25731;SDS011;13585;50.864;4.406;2022-08-19T04:16:04;6.28;;;4.07;;
25731;SDS011;13585;50.864;4.406;2022-08-19T04:18:31;8.05;;;4.50;;
25731;SDS011;13585;50.864;4.406;2022-08-19T04:20:58;5.30;;;4.32;;
25731;SDS011;13585;50.864;4.406;2022-08-19T04:23:24;5.43;;;4.20;;
25731;SDS011;13585;50.864;4.406;2022-08-19T04:25:50;6.07;;;4.57;;
25731;SDS011;13585;50.864;4.406;2022-08-19T04:28:16;6.10;;;4.22;;
25731;SDS011;13585;50.864;4.406;2022-08-19T04:30:43;6.07;;;4.68;;
25731;SDS011;13585;50.864;4.406;2022-08-19T04:33:12;4.97;;;3.95;;
25731;SDS011;13585;50.864;4.406;2022-08-19T04:35:41;7.03;;;4.40;;
25731;SDS011;13585;50.864;4.406;2022-08-19T04:38:10;5.40;;;4.47;;
25731;SDS011;13585;50.864;4.406;2022-08-19T04:40:43;6.35;;;4.40;;
25731;SDS011;13585;50.864;4.406;2022-08-19T04:43:28;6.10;;;4.28;;
25731;SDS011;13585;50.864;4.406;2022-08-19T04:45:54;6.47;;;3.83;;
25731;SDS011;13585;50.864;4.406;2022-08-19T04:48:21;7.35;;;4.45;;
25731;SDS011;13585;50.864;4.406;2022-08-19T04:50:54;8.32;;;4.15;;
25731;SDS011;13585;50.864;4.406;2022-08-19T04:53:32;7.50;;;4.47;;
25731;SDS011;13585;50.864;4.406;2022-08-19T04:55:58;6.95;;;4.45;;
25731;SDS011;13585;50.864;4.406;2022-08-19T04:58:28;7.20;;;4.13;;
25731;SDS011;13585;50.864;4.406;2022-08-19T05:00:53;5.75;;;3.97;;
25731;SDS011;13585;50.864;4.406;2022-08-19T05:03:20;6.10;;;3.85;;
25731;SDS011;13585;50.864;4.406;2022-08-19T05:05:46;5.55;;;3.95;;
25731;SDS011;13585;50.864;4.406;2022-08-19T05:08:14;7.82;;;3.90;;
25731;SDS011;13585;50.864;4.406;2022-08-19T05:10:45;6.00;;;3.53;;
25731;SDS011;13585;50.864;4.406;2022-08-19T05:13:15;5.00;;;3.42;;
25731;SDS011;13585;50.864;4.406;2022-08-19T05:15:44;6.95;;;3.67;;
25731;SDS011;13585;50.864;4.406;2022-08-19T05:18:17;6.38;;;3.55;;
25731;SDS011;13585;50.864;4.406;2022-08-19T05:21:05;6.30;;;3.78;;
25731;SDS011;13585;50.864;4.406;2022-08-19T05:23:50;6.45;;;3.78;;
25731;SDS011;13585;50.864;4.406;2022-08-19T05:26:16;5.95;;;3.53;;
25731;SDS011;13585;50.864;4.406;2022-08-19T05:28:42;5.43;;;3.70;;
25731;SDS011;13585;50.864;4.406;2022-08-19T05:31:08;4.95;;;3.45;;
25731;SDS011;13585;50.864;4.406;2022-08-19T05:33:34;4.75;;;3.25;;
25731;SDS011;13585;50.864;4.406;2022-08-19T05:36:04;4.43;;;3.15;;
25731;SDS011;13585;50.864;4.406;2022-08-19T05:38:32;6.25;;;3.35;;
25731;SDS011;13585;50.864;4.406;2022-08-19T05:40:58;4.82;;;3.10;;
25731;SDS011;13585;50.864;4.406;2022-08-19T05:43:24;7.47;;;3.63;;
25731;SDS011;13585;50.864;4.406;2022-08-19T05:45:50;5.43;;;3.20;;
25731;SDS011;13585;50.864;4.406;2022-08-19T05:48:16;7.38;;;3.38;;
25731;SDS011;13585;50.864;4.406;2022-08-19T05:50:45;4.40;;;3.28;;
25731;SDS011;13585;50.864;4.406;2022-08-19T05:53:11;6.65;;;3.65;;
25731;SDS011;13585;50.864;4.406;2022-08-19T05:55:37;5.00;;;3.15;;
25731;SDS011;13585;50.864;4.406;2022-08-19T05:58:03;4.88;;;3.08;;
25731;SDS011;13585;50.864;4.406;2022-08-19T06:00:32;5.65;;;3.42;;
25731;SDS011;13585;50.864;4.406;2022-08-19T06:02:58;4.25;;;3.15;;
25731;SDS011;13585;50.864;4.406;2022-08-19T06:05:28;3.75;;;2.85;;
25731;SDS011;13585;50.864;4.406;2022-08-19T06:07:56;5.43;;;3.13;;
25731;SDS011;13585;50.864;4.406;2022-08-19T06:10:24;5.75;;;2.97;;
25731;SDS011;13585;50.864;4.406;2022-08-19T06:12:51;3.90;;;2.97;;
25731;SDS011;13585;50.864;4.406;2022-08-19T06:15:17;3.63;;;3.22;;
25731;SDS011;13585;50.864;4.406;2022-08-19T06:17:43;7.10;;;3.50;;
25731;SDS011;13585;50.864;4.406;2022-08-19T06:20:12;3.88;;;2.97;;
25731;SDS011;13585;50.864;4.406;2022-08-19T06:22:40;5.65;;;3.25;;
25731;SDS011;13585;50.864;4.406;2022-08-19T06:25:08;8.30;;;3.20;;
25731;SDS011;13585;50.864;4.406;2022-08-19T06:27:34;4.70;;;3.10;;
25731;SDS011;13585;50.864;4.406;2022-08-19T06:30:00;4.93;;;3.00;;
25731;SDS011;13585;50.864;4.406;2022-08-19T06:32:27;6.72;;;3.03;;
25731;SDS011;13585;50.864;4.406;2022-08-19T06:34:53;4.65;;;2.95;;
25731;SDS011;13585;50.864;4.406;2022-08-19T06:37:20;6.90;;;3.38;;
25731;SDS011;13585;50.864;4.406;2022-08-19T06:39:46;5.30;;;3.15;;
25731;SDS011;13585;50.864;4.406;2022-08-19T06:42:12;5.18;;;2.70;;
25731;SDS011;13585;50.864;4.406;2022-08-19T06:44:41;6.57;;;2.95;;
25731;SDS011;13585;50.864;4.406;2022-08-19T06:47:09;5.00;;;3.00;;
25731;SDS011;13585;50.864;4.406;2022-08-19T06:49:36;4.57;;;3.00;;
25731;SDS011;13585;50.864;4.406;2022-08-19T06:52:02;5.20;;;2.72;;
25731;SDS011;13585;50.864;4.406;2022-08-19T06:54:29;5.05;;;2.85;;
25731;SDS011;13585;50.864;4.406;2022-08-19T06:56:55;5.10;;;2.40;;
25731;SDS011;13585;50.864;4.406;2022-08-19T06:59:23;4.30;;;2.95;;
25731;SDS011;13585;50.864;4.406;2022-08-19T07:01:53;4.57;;;2.78;;
25731;SDS011;13585;50.864;4.406;2022-08-19T07:04:25;4.93;;;2.42;;
25731;SDS011;13585;50.864;4.406;2022-08-19T07:06:57;3.80;;;2.85;;
25731;SDS011;13585;50.864;4.406;2022-08-19T07:09:25;4.70;;;2.50;;
25731;SDS011;13585;50.864;4.406;2022-08-19T07:11:52;4.90;;;2.10;;
25731;SDS011;13585;50.864;4.406;2022-08-19T07:14:19;4.97;;;2.35;;
25731;SDS011;13585;50.864;4.406;2022-08-19T07:16:50;3.70;;;2.33;;
25731;SDS011;13585;50.864;4.406;2022-08-19T07:19:19;3.33;;;2.40;;
25731;SDS011;13585;50.864;4.406;2022-08-19T07:21:47;3.65;;;2.47;;
25731;SDS011;13585;50.864;4.406;2022-08-19T07:24:13;3.25;;;2.03;;
25731;SDS011;13585;50.864;4.406;2022-08-19T07:26:41;2.20;;;2.00;;
25731;SDS011;13585;50.864;4.406;2022-08-19T07:29:08;3.25;;;2.17;;
25731;SDS011;13585;50.864;4.406;2022-08-19T07:31:34;3.42;;;2.15;;
25731;SDS011;13585;50.864;4.406;2022-08-19T07:34:01;2.05;;;1.80;;
25731;SDS011;13585;50.864;4.406;2022-08-19T07:36:31;4.40;;;2.30;;
25731;SDS011;13585;50.864;4.406;2022-08-19T07:38:58;2.88;;;1.88;;
25731;SDS011;13585;50.864;4.406;2022-08-19T07:41:27;4.55;;;2.08;;
25731;SDS011;13585;50.864;4.406;2022-08-19T07:43:55;2.33;;;1.90;;
25731;SDS011;13585;50.864;4.406;2022-08-19T07:46:22;3.92;;;2.33;;
25731;SDS011;13585;50.864;4.406;2022-08-19T07:48:48;4.13;;;2.28;;
25731;SDS011;13585;50.864;4.406;2022-08-19T07:51:17;5.05;;;2.05;;
25731;SDS011;13585;50.864;4.406;2022-08-19T07:53:45;4.43;;;2.17;;
25731;SDS011;13585;50.864;4.406;2022-08-19T07:56:11;3.78;;;1.80;;
25731;SDS011;13585;50.864;4.406;2022-08-19T07:58:39;5.38;;;2.40;;
25731;SDS011;13585;50.864;4.406;2022-08-19T08:01:10;3.70;;;2.00;;
25731;SDS011;13585;50.864;4.406;2022-08-19T08:03:39;4.80;;;2.03;;
25731;SDS011;13585;50.864;4.406;2022-08-19T08:06:24;5.20;;;2.30;;
25731;SDS011;13585;50.864;4.406;2022-08-19T08:09:08;5.57;;;2.45;;
25731;SDS011;13585;50.864;4.406;2022-08-19T08:11:56;4.18;;;2.10;;
25731;SDS011;13585;50.864;4.406;2022-08-19T08:14:29;5.18;;;2.03;;
25731;SDS011;13585;50.864;4.406;2022-08-19T08:16:58;3.65;;;1.75;;
25731;SDS011;13585;50.864;4.406;2022-08-19T08:19:24;4.03;;;2.05;;
25731;SDS011;13585;50.864;4.406;2022-08-19T08:21:53;3.33;;;2.03;;
25731;SDS011;13585;50.864;4.406;2022-08-19T08:24:20;2.42;;;1.92;;
25731;SDS011;13585;50.864;4.406;2022-08-19T08:26:45;3.28;;;1.92;;
25731;SDS011;13585;50.864;4.406;2022-08-19T08:29:12;5.65;;;2.20;;
25731;SDS011;13585;50.864;4.406;2022-08-19T08:31:39;3.88;;;2.10;;
25731;SDS011;13585;50.864;4.406;2022-08-19T08:34:05;2.95;;;2.10;;
25731;SDS011;13585;50.864;4.406;2022-08-19T08:36:32;3.10;;;1.90;;
25731;SDS011;13585;50.864;4.406;2022-08-19T08:39:01;3.10;;;2.05;;
25731;SDS011;13585;50.864;4.406;2022-08-19T08:43:58;3.22;;;1.90;;
25731;SDS011;13585;50.864;4.406;2022-08-19T08:46:27;3.55;;;2.22;;
25731;SDS011;13585;50.864;4.406;2022-08-19T08:51:34;2.72;;;2.03;;
25731;SDS011;13585;50.864;4.406;2022-08-19T08:54:07;3.17;;;1.90;;
25731;SDS011;13585;50.864;4.406;2022-08-19T08:56:35;2.88;;;2.10;;
25731;SDS011;13585;50.864;4.406;2022-08-19T08:59:05;5.57;;;2.30;;
25731;SDS011;13585;50.864;4.406;2022-08-19T09:01:52;3.33;;;1.73;;
25731;SDS011;13585;50.864;4.406;2022-08-19T09:04:18;2.25;;;1.90;;
25731;SDS011;13585;50.864;4.406;2022-08-19T09:12:42;3.97;;;2.10;;
25731;SDS011;13585;50.864;4.406;2022-08-19T09:15:04;4.93;;;1.80;;
25731;SDS011;13585;50.864;4.406;2022-08-19T09:17:35;4.35;;;2.08;;
25731;SDS011;13585;50.864;4.406;2022-08-19T09:22:38;4.70;;;2.05;;
25731;SDS011;13585;50.864;4.406;2022-08-19T09:25:09;3.38;;;2.10;;
25731;SDS011;13585;50.864;4.406;2022-08-19T09:27:36;3.63;;;2.17;;
25731;SDS011;13585;50.864;4.406;2022-08-19T09:30:04;4.55;;;2.38;;
25731;SDS011;13585;50.864;4.406;2022-08-19T09:32:32;4.20;;;1.83;;
25731;SDS011;13585;50.864;4.406;2022-08-19T09:34:58;5.15;;;2.10;;
25731;SDS011;13585;50.864;4.406;2022-08-19T09:37:25;3.25;;;2.13;;
25731;SDS011;13585;50.864;4.406;2022-08-19T09:39:51;4.28;;;2.30;;
25731;SDS011;13585;50.864;4.406;2022-08-19T09:42:17;2.75;;;1.90;;
25731;SDS011;13585;50.864;4.406;2022-08-19T09:44:43;3.47;;;2.20;;
25731;SDS011;13585;50.864;4.406;2022-08-19T09:47:10;4.25;;;2.05;;
25731;SDS011;13585;50.864;4.406;2022-08-19T09:49:37;2.92;;;1.90;;
25731;SDS011;13585;50.864;4.406;2022-08-19T09:52:04;3.28;;;2.10;;
25731;SDS011;13585;50.864;4.406;2022-08-19T09:54:31;4.03;;;2.13;;
25731;SDS011;13585;50.864;4.406;2022-08-19T09:56:57;3.33;;;2.05;;
25731;SDS011;13585;50.864;4.406;2022-08-19T09:59:25;3.85;;;2.15;;
25731;SDS011;13585;50.864;4.406;2022-08-19T10:01:51;2.83;;;1.80;;
25731;SDS011;13585;50.864;4.406;2022-08-19T10:04:17;3.60;;;2.40;;
25731;SDS011;13585;50.864;4.406;2022-08-19T10:06:43;5.50;;;2.03;;
25731;SDS011;13585;50.864;4.406;2022-08-19T10:09:09;2.15;;;1.95;;
25731;SDS011;13585;50.864;4.406;2022-08-19T10:11:36;2.75;;;2.00;;
25731;SDS011;13585;50.864;4.406;2022-08-19T10:14:05;3.85;;;1.70;;
25731;SDS011;13585;50.864;4.406;2022-08-19T10:16:31;3.42;;;2.15;;
25731;SDS011;13585;50.864;4.406;2022-08-19T10:18:57;5.38;;;2.00;;
25731;SDS011;13585;50.864;4.406;2022-08-19T10:21:25;3.45;;;2.00;;
25731;SDS011;13585;50.864;4.406;2022-08-19T10:23:54;3.95;;;2.30;;
25731;SDS011;13585;50.864;4.406;2022-08-19T10:26:23;3.00;;;2.03;;
25731;SDS011;13585;50.864;4.406;2022-08-19T10:28:54;3.80;;;2.10;;
25731;SDS011;13585;50.864;4.406;2022-08-19T10:31:21;3.80;;;2.00;;
25731;SDS011;13585;50.864;4.406;2022-08-19T10:36:22;3.35;;;1.80;;
25731;SDS011;13585;50.864;4.406;2022-08-19T10:38:51;2.65;;;1.95;;
25731;SDS011;13585;50.864;4.406;2022-08-19T10:41:20;2.85;;;2.00;;
25731;SDS011;13585;50.864;4.406;2022-08-19T10:43:50;4.18;;;2.40;;
25731;SDS011;13585;50.864;4.406;2022-08-19T10:46:17;2.75;;;1.83;;
25731;SDS011;13585;50.864;4.406;2022-08-19T10:48:44;2.13;;;1.70;;
25731;SDS011;13585;50.864;4.406;2022-08-19T10:51:10;4.05;;;1.77;;
25731;SDS011;13585;50.864;4.406;2022-08-19T10:53:55;4.22;;;2.10;;
25731;SDS011;13585;50.864;4.406;2022-08-19T10:56:22;3.33;;;2.00;;
25731;SDS011;13585;50.864;4.406;2022-08-19T10:59:06;3.10;;;1.92;;
25731;SDS011;13585;50.864;4.406;2022-08-19T11:01:32;2.42;;;1.73;;
25731;SDS011;13585;50.864;4.406;2022-08-19T11:04:00;3.35;;;2.00;;
25731;SDS011;13585;50.864;4.406;2022-08-19T11:06:27;3.20;;;2.50;;
25731;SDS011;13585;50.864;4.406;2022-08-19T11:08:53;2.35;;;1.77;;
25731;SDS011;13585;50.864;4.406;2022-08-19T11:11:19;2.20;;;1.90;;
25731;SDS011;13585;50.864;4.406;2022-08-19T11:13:46;2.90;;;1.85;;
25731;SDS011;13585;50.864;4.406;2022-08-19T11:16:18;2.65;;;1.92;;
25731;SDS011;13585;50.864;4.406;2022-08-19T11:18:48;2.42;;;2.00;;
25731;SDS011;13585;50.864;4.406;2022-08-19T11:23:44;3.35;;;2.00;;
25731;SDS011;13585;50.864;4.406;2022-08-19T11:26:11;3.03;;;1.85;;
25731;SDS011;13585;50.864;4.406;2022-08-19T11:28:37;3.08;;;2.30;;
25731;SDS011;13585;50.864;4.406;2022-08-19T11:31:04;2.17;;;1.80;;
25731;SDS011;13585;50.864;4.406;2022-08-19T11:33:34;2.53;;;1.95;;
25731;SDS011;13585;50.864;4.406;2022-08-19T11:36:00;2.33;;;2.10;;
25731;SDS011;13585;50.864;4.406;2022-08-19T11:38:26;3.88;;;2.22;;
25731;SDS011;13585;50.864;4.406;2022-08-19T11:40:59;3.20;;;2.53;;
25731;SDS011;13585;50.864;4.406;2022-08-19T11:43:27;4.85;;;2.15;;
25731;SDS011;13585;50.864;4.406;2022-08-19T11:45:53;3.00;;;2.30;;
25731;SDS011;13585;50.864;4.406;2022-08-19T11:48:20;3.95;;;2.40;;
25731;SDS011;13585;50.864;4.406;2022-08-19T11:50:53;2.88;;;1.90;;
25731;SDS011;13585;50.864;4.406;2022-08-19T11:53:21;3.35;;;2.35;;
25731;SDS011;13585;50.864;4.406;2022-08-19T11:55:47;3.20;;;2.22;;
25731;SDS011;13585;50.864;4.406;2022-08-19T11:58:14;3.33;;;2.38;;
25731;SDS011;13585;50.864;4.406;2022-08-19T12:00:41;3.53;;;1.98;;
25731;SDS011;13585;50.864;4.406;2022-08-19T12:03:10;4.18;;;2.50;;
25731;SDS011;13585;50.864;4.406;2022-08-19T12:05:37;2.53;;;2.13;;
25731;SDS011;13585;50.864;4.406;2022-08-19T12:08:03;3.10;;;2.80;;
25731;SDS011;13585;50.864;4.406;2022-08-19T12:10:29;3.50;;;2.47;;
25731;SDS011;13585;50.864;4.406;2022-08-19T12:12:55;3.05;;;2.28;;
25731;SDS011;13585;50.864;4.406;2022-08-19T12:15:21;3.22;;;2.40;;
25731;SDS011;13585;50.864;4.406;2022-08-19T12:17:46;3.45;;;2.35;;
25731;SDS011;13585;50.864;4.406;2022-08-19T12:20:13;3.42;;;2.40;;
25731;SDS011;13585;50.864;4.406;2022-08-19T12:22:41;3.30;;;2.35;;
25731;SDS011;13585;50.864;4.406;2022-08-19T12:25:07;5.68;;;2.58;;
25731;SDS011;13585;50.864;4.406;2022-08-19T12:27:34;3.85;;;2.60;;
25731;SDS011;13585;50.864;4.406;2022-08-19T12:30:00;2.80;;;2.50;;
25731;SDS011;13585;50.864;4.406;2022-08-19T12:32:27;3.03;;;2.58;;
25731;SDS011;13585;50.864;4.406;2022-08-19T12:34:53;5.65;;;2.50;;
25731;SDS011;13585;50.864;4.406;2022-08-19T12:37:19;4.60;;;2.50;;
25731;SDS011;13585;50.864;4.406;2022-08-19T12:39:45;5.03;;;2.80;;
25731;SDS011;13585;50.864;4.406;2022-08-19T12:42:11;3.25;;;2.25;;
25731;SDS011;13585;50.864;4.406;2022-08-19T12:44:38;3.63;;;2.50;;
25731;SDS011;13585;50.864;4.406;2022-08-19T12:47:05;4.68;;;2.78;;
25731;SDS011;13585;50.864;4.406;2022-08-19T12:49:31;3.70;;;2.55;;
25731;SDS011;13585;50.864;4.406;2022-08-19T12:51:59;4.75;;;2.40;;
25731;SDS011;13585;50.864;4.406;2022-08-19T12:54:25;3.70;;;2.20;;
25731;SDS011;13585;50.864;4.406;2022-08-19T12:56:51;3.13;;;2.42;;
25731;SDS011;13585;50.864;4.406;2022-08-19T12:59:17;2.67;;;2.20;;
25731;SDS011;13585;50.864;4.406;2022-08-19T13:01:44;3.60;;;2.30;;
25731;SDS011;13585;50.864;4.406;2022-08-19T13:04:10;3.15;;;2.15;;
25731;SDS011;13585;50.864;4.406;2022-08-19T13:06:36;2.78;;;2.33;;
25731;SDS011;13585;50.864;4.406;2022-08-19T13:09:03;6.00;;;2.30;;
25731;SDS011;13585;50.864;4.406;2022-08-19T13:11:29;4.07;;;2.05;;
25731;SDS011;13585;50.864;4.406;2022-08-19T13:13:57;2.08;;;1.85;;
25731;SDS011;13585;50.864;4.406;2022-08-19T13:16:23;2.63;;;1.85;;
25731;SDS011;13585;50.864;4.406;2022-08-19T13:18:50;5.50;;;1.80;;
25731;SDS011;13585;50.864;4.406;2022-08-19T13:21:17;2.80;;;1.77;;
25731;SDS011;13585;50.864;4.406;2022-08-19T13:23:45;3.35;;;1.73;;
25731;SDS011;13585;50.864;4.406;2022-08-19T13:26:11;2.85;;;1.80;;
25731;SDS011;13585;50.864;4.406;2022-08-19T13:28:38;8.35;;;1.85;;
25731;SDS011;13585;50.864;4.406;2022-08-19T13:31:24;5.13;;;1.77;;
25731;SDS011;13585;50.864;4.406;2022-08-19T13:34:10;5.72;;;1.67;;
25731;SDS011;13585;50.864;4.406;2022-08-19T13:36:37;2.10;;;1.45;;
25731;SDS011;13585;50.864;4.406;2022-08-19T13:39:05;3.45;;;1.40;;
25731;SDS011;13585;50.864;4.406;2022-08-19T13:41:32;2.85;;;1.08;;
25731;SDS011;13585;50.864;4.406;2022-08-19T13:43:59;1.02;;;0.93;;
25731;SDS011;13585;50.864;4.406;2022-08-19T13:46:24;1.15;;;1.00;;
25731;SDS011;13585;50.864;4.406;2022-08-19T13:48:52;1.63;;;0.80;;
25731;SDS011;13585;50.864;4.406;2022-08-19T13:51:17;2.22;;;0.90;;
25731;SDS011;13585;50.864;4.406;2022-08-19T13:53:43;2.45;;;0.90;;
25731;SDS011;13585;50.864;4.406;2022-08-19T13:56:10;3.08;;;0.82;;
25731;SDS011;13585;50.864;4.406;2022-08-19T13:58:40;1.92;;;0.70;;
25731;SDS011;13585;50.864;4.406;2022-08-19T14:01:06;2.03;;;0.90;;
25731;SDS011;13585;50.864;4.406;2022-08-19T14:03:32;1.65;;;0.75;;
25731;SDS011;13585;50.864;4.406;2022-08-19T14:05:58;2.03;;;1.10;;
25731;SDS011;13585;50.864;4.406;2022-08-19T14:08:24;1.75;;;1.00;;
25731;SDS011;13585;50.864;4.406;2022-08-19T14:10:54;0.98;;;0.77;;
25731;SDS011;13585;50.864;4.406;2022-08-19T14:13:21;4.70;;;0.90;;
25731;SDS011;13585;50.864;4.406;2022-08-19T14:15:47;2.05;;;0.82;;
25731;SDS011;13585;50.864;4.406;2022-08-19T14:18:17;2.55;;;0.80;;
25731;SDS011;13585;50.864;4.406;2022-08-19T14:20:43;1.02;;;0.80;;
25731;SDS011;13585;50.864;4.406;2022-08-19T14:23:10;4.55;;;0.80;;
25731;SDS011;13585;50.864;4.406;2022-08-19T14:25:38;1.83;;;1.00;;
25731;SDS011;13585;50.864;4.406;2022-08-19T14:28:04;3.10;;;0.90;;
25731;SDS011;13585;50.864;4.406;2022-08-19T14:30:33;3.60;;;1.08;;
25731;SDS011;13585;50.864;4.406;2022-08-19T14:33:02;3.50;;;0.98;;
25731;SDS011;13585;50.864;4.406;2022-08-19T14:35:30;3.40;;;0.90;;
25731;SDS011;13585;50.864;4.406;2022-08-19T14:37:59;1.38;;;1.08;;
25731;SDS011;13585;50.864;4.406;2022-08-19T14:40:27;2.70;;;0.90;;
25731;SDS011;13585;50.864;4.406;2022-08-19T14:42:55;1.20;;;0.70;;
25731;SDS011;13585;50.864;4.406;2022-08-19T14:45:28;1.60;;;0.75;;
25731;SDS011;13585;50.864;4.406;2022-08-19T14:47:56;3.28;;;0.70;;
25731;SDS011;13585;50.864;4.406;2022-08-19T14:50:21;0.90;;;0.47;;
25731;SDS011;13585;50.864;4.406;2022-08-19T14:52:47;1.15;;;0.43;;
25731;SDS011;13585;50.864;4.406;2022-08-19T14:55:14;1.00;;;0.50;;
25731;SDS011;13585;50.864;4.406;2022-08-19T14:57:41;3.00;;;0.60;;
25731;SDS011;13585;50.864;4.406;2022-08-19T15:00:07;3.75;;;0.80;;
25731;SDS011;13585;50.864;4.406;2022-08-19T15:02:40;0.60;;;0.40;;
25731;SDS011;13585;50.864;4.406;2022-08-19T15:05:10;6.90;;;0.70;;
25731;SDS011;13585;50.864;4.406;2022-08-19T15:07:36;0.98;;;0.50;;
25731;SDS011;13585;50.864;4.406;2022-08-19T15:10:03;1.20;;;0.60;;
25731;SDS011;13585;50.864;4.406;2022-08-19T15:12:31;5.78;;;0.80;;
25731;SDS011;13585;50.864;4.406;2022-08-19T15:14:59;2.50;;;0.75;;
25731;SDS011;13585;50.864;4.406;2022-08-19T15:17:24;2.55;;;0.68;;
25731;SDS011;13585;50.864;4.406;2022-08-19T15:19:53;1.10;;;0.50;;